Nikishka, Alaska
Current Conditions -  °F | °C
As of 3:53 AM on Thursday 23 Oct 2014 (Local Time) from PAEN Reporting Station
Clear Clear  
Wind Chill: 24°   Ceiling: Unl
Heat Index: 24°   Visibility: 10mi
Dew Point: 23°   Wind: 3mph
Humidity: 96%   Direction: 360°N
Pressure: 29.6"   Gusts: NA
Location:  60.7377°N, 151.324°W
Report Text: PAEN 231153Z AUTO 36003KT 10SM CLR M04/M05 A2960 RMK AO2 SLP025 T10441050 10022 21044 51024 TSNO
Loading
Personal Weather Stations






























Interactive Weather Map New forecast layout! Learn more

10-Day Weather Forecast

Advertisements
Track Severe Weather on mobile